createdAt,value
2019-01-05T00:00:14.036Z,4.20
2019-01-05T00:02:54.036Z,4.20
2019-01-05T00:05:45.631Z,4.10
2019-01-05T00:08:42.633Z,4.10
2019-01-05T00:11:29.917Z,4.00
2019-01-05T00:14:17.046Z,4.10
2019-01-05T00:17:13.817Z,4.30
2019-01-05T00:20:18.365Z,4.20
2019-01-05T00:23:05.674Z,4.30
2019-01-05T00:25:53.082Z,4.40
2019-01-05T00:28:40.500Z,4.40
2019-01-05T00:31:27.452Z,4.20
2019-01-05T00:34:21.330Z,4.10
2019-01-05T00:37:03.621Z,4.10
2019-01-05T00:39:51.259Z,4.00
2019-01-05T00:42:38.161Z,4.00
2019-01-05T00:45:25.248Z,4.10
2019-01-05T00:48:12.604Z,4.00
2019-01-05T00:51:10.260Z,4.10
2019-01-05T00:53:57.749Z,4.10
2019-01-05T00:56:45.727Z,4.10
2019-01-05T00:59:33.297Z,4.10
2019-01-05T01:02:23.148Z,4.00
2019-01-05T01:05:10.526Z,4.10
2019-01-05T01:08:12.190Z,4.10
2019-01-05T01:10:59.153Z,4.10
2019-01-05T01:13:46.415Z,4.00
2019-01-05T01:16:27.049Z,4.10
2019-01-05T01:19:21.158Z,4.10
2019-01-05T01:22:08.580Z,4.10
2019-01-05T01:25:11.967Z,4.10
2019-01-05T01:28:03.663Z,4.30
2019-01-05T01:30:49.744Z,4.30
2019-01-05T01:33:50.838Z,4.30
2019-01-05T01:36:42.089Z,4.30
2019-01-05T01:39:51.040Z,4.40
2019-01-05T01:42:39.090Z,4.40
2019-01-05T01:45:26.166Z,4.30
2019-01-05T01:48:07.082Z,4.20
2019-01-05T01:50:54.576Z,4.20
2019-01-05T01:53:58.724Z,4.20
2019-01-05T01:56:52.512Z,4.40
2019-01-05T02:00:15.470Z,4.50
2019-01-05T02:03:13.678Z,4.50
2019-01-05T02:06:24.017Z,4.30
2019-01-05T02:09:11.893Z,4.20
2019-01-05T02:12:09.113Z,4.20
2019-01-05T02:15:00.042Z,4.20
2019-01-05T02:17:59.132Z,4.30
2019-01-05T02:21:12.781Z,4.30
2019-01-05T02:24:54.300Z,4.30
2019-01-05T02:27:59.609Z,4.40
2019-01-05T02:31:13.741Z,4.30
2019-01-05T02:34:38.974Z,4.20
2019-01-05T02:37:58.282Z,4.20
2019-01-05T02:41:23.595Z,4.20
2019-01-05T02:44:42.861Z,4.20
2019-01-05T02:47:53.513Z,4.30
2019-01-05T02:51:22.299Z,4.30
2019-01-05T02:54:49.980Z,4.40
2019-01-05T02:57:56.941Z,4.40
2019-01-05T03:01:24.524Z,4.40
2019-01-05T03:04:47.333Z,4.40
2019-01-05T03:08:22.522Z,4.50
2019-01-05T03:11:44.359Z,4.40
2019-01-05T03:15:07.793Z,4.60
2019-01-05T03:18:49.193Z,4.70
2019-01-05T03:22:22.571Z,4.70
2019-01-05T03:25:56.641Z,4.50
2019-01-05T03:29:18.084Z,4.50
2019-01-05T03:32:59.053Z,4.50
2019-01-05T03:36:23.423Z,4.50
2019-01-05T03:40:00.886Z,4.40
2019-01-05T03:43:20.845Z,4.50
2019-01-05T03:46:46.824Z,4.60
2019-01-05T03:50:02.048Z,4.60
2019-01-05T03:53:33.386Z,4.50
2019-01-05T03:56:55.025Z,4.50
2019-01-05T04:00:27.530Z,4.60
2019-01-05T04:04:14.932Z,4.50
2019-01-05T04:07:31.146Z,4.60
2019-01-05T04:10:57.584Z,4.50
2019-01-05T04:14:02.738Z,4.70
2019-01-05T04:17:23.759Z,4.60
2019-01-05T04:20:50.108Z,4.60
2019-01-05T04:24:02.626Z,4.60
2019-01-05T04:28:04.736Z,4.60
2019-01-05T04:31:43.834Z,4.70
2019-01-05T04:35:18.403Z,4.80
2019-01-05T04:38:54.855Z,4.80
2019-01-05T04:42:09.098Z,4.70
2019-01-05T04:45:41.738Z,4.80
2019-01-05T04:49:15.171Z,5.00
2019-01-05T04:52:55.012Z,5.00
2019-01-05T04:56:10.721Z,5.20
2019-01-05T04:59:39.772Z,5.10
2019-01-05T05:03:00.309Z,5.00
2019-01-05T05:06:40.449Z,5.00
2019-01-05T05:10:09.049Z,5.20
2019-01-05T05:13:31.415Z,5.10
2019-01-05T05:16:56.288Z,5.10
2019-01-05T05:20:07.100Z,5.00
2019-01-05T05:23:33.891Z,4.90
2019-01-05T05:27:01.031Z,5.30
2019-01-05T05:30:43.030Z,5.10
2019-01-05T05:34:10.282Z,5.20
2019-01-05T05:37:43.471Z,5.20
2019-01-05T05:41:11.117Z,5.10
2019-01-05T05:44:42.169Z,5.10
2019-01-05T05:47:41.817Z,5.30
2019-01-05T05:51:08.478Z,5.20
2019-01-05T05:54:34.925Z,5.20
2019-01-05T05:58:13.191Z,5.50
2019-01-05T06:01:27.986Z,5.40
2019-01-05T06:05:02.583Z,5.30
2019-01-05T06:08:17.431Z,5.30
2019-01-05T06:11:43.407Z,5.60
2019-01-05T06:15:03.871Z,5.50
2019-01-05T06:18:33.061Z,5.30
2019-01-05T06:22:08.706Z,5.50
2019-01-05T06:25:30.366Z,5.40
2019-01-05T06:29:20.729Z,5.50
2019-01-05T06:32:58.174Z,5.30
2019-01-05T06:36:11.189Z,5.60
2019-01-05T06:39:41.394Z,5.40
2019-01-05T06:43:08.156Z,5.50
2019-01-05T06:46:36.615Z,5.50
2019-01-05T06:49:52.922Z,5.40
2019-01-05T06:53:03.889Z,5.30
2019-01-05T06:56:46.302Z,5.50
2019-01-05T07:00:10.383Z,5.60
2019-01-05T07:45:42.499Z,5.80
2019-01-05T08:21:43.513Z,6.10
2019-01-05T08:25:00.828Z,6.10
2019-01-05T08:28:30.984Z,6.00
2019-01-05T08:31:55.380Z,6.00
2019-01-05T08:35:12.192Z,6.00
2019-01-05T08:38:54.578Z,6.00
2019-01-05T08:42:22.311Z,6.00
2019-01-05T08:45:47.061Z,6.00
2019-01-05T08:49:14.101Z,6.10
2019-01-05T08:52:23.684Z,6.00
2019-01-05T08:55:32.781Z,6.10
2019-01-05T08:58:39.506Z,6.10
2019-01-05T09:01:57.651Z,6.20
2019-01-05T09:05:22.632Z,6.20
2019-01-05T09:08:52.411Z,6.40
2019-01-05T09:12:36.806Z,6.40
2019-01-05T09:16:09.488Z,6.50
2019-01-05T09:19:34.720Z,6.40
2019-01-05T09:23:04.568Z,6.50
2019-01-05T09:26:38.636Z,6.60
2019-01-05T09:30:16.335Z,6.60
2019-01-05T09:34:08.233Z,6.50
2019-01-05T09:37:36.541Z,6.60
2019-01-05T09:41:02.607Z,6.70
2019-01-05T09:44:39.412Z,6.60
2019-01-05T09:48:14.527Z,6.70
2019-01-05T09:51:37.936Z,6.70
2019-01-05T09:55:25.411Z,6.70
2019-01-05T09:59:09.925Z,6.80
2019-01-05T10:02:52.921Z,6.80
2019-01-05T10:06:32.349Z,6.90
2019-01-05T10:09:58.994Z,6.90
2019-01-05T10:13:19.518Z,6.90
2019-01-05T10:17:06.084Z,6.90
2019-01-05T10:20:36.440Z,6.90
2019-01-05T10:23:54.983Z,7.10
2019-01-05T10:27:13.656Z,7.10
2019-01-05T10:30:41.702Z,7.00
2019-01-05T10:34:19.918Z,7.10
2019-01-05T10:37:27.796Z,7.10
2019-01-05T10:40:51.486Z,7.10
2019-01-05T10:44:13.071Z,7.00
2019-01-05T10:47:42.530Z,7.10
2019-01-05T10:50:57.475Z,7.10
2019-01-05T10:54:50.373Z,7.10
2019-01-05T10:58:23.704Z,7.10
2019-01-05T11:01:36.830Z,7.10
2019-01-05T11:05:06.201Z,7.10
2019-01-05T11:08:34.122Z,7.10
2019-01-05T11:11:53.489Z,7.30
2019-01-05T11:15:25.747Z,7.30
2019-01-05T11:18:44.937Z,7.20
2019-01-05T11:22:02.109Z,7.40
2019-01-05T11:25:21.325Z,7.40
2019-01-05T11:28:33.447Z,7.40
2019-01-05T11:32:24.336Z,7.50
2019-01-05T11:35:58.596Z,7.50
2019-01-05T11:39:28.262Z,7.50
2019-01-05T11:43:22.228Z,7.70
2019-01-05T11:46:27.522Z,7.60
2019-01-05T11:50:04.259Z,7.70
2019-01-05T11:53:57.251Z,7.70
2019-01-05T11:57:24.268Z,7.80
2019-01-05T12:00:55.170Z,8.00
2019-01-05T12:04:17.844Z,7.90
2019-01-05T12:07:55.233Z,7.80
2019-01-05T12:11:35.222Z,7.70
2019-01-05T12:15:06.901Z,7.90
2019-01-05T12:18:39.955Z,7.90
2019-01-05T12:39:16.879Z,8.00
2019-01-05T12:42:40.051Z,8.00
2019-01-05T12:45:54.238Z,7.90
2019-01-05T12:57:18.515Z,7.90
2019-01-05T13:00:58.173Z,7.90
2019-01-05T13:04:52.296Z,8.00
2019-01-05T13:08:21.613Z,7.90
2019-01-05T13:12:16.333Z,7.90
2019-01-05T13:19:49.227Z,8.10
2019-01-05T13:23:32.225Z,8.30
2019-01-05T13:26:52.560Z,8.40
2019-01-05T13:30:38.486Z,8.20
2019-01-05T13:34:16.229Z,8.00
2019-01-05T13:37:47.773Z,8.00
2019-01-05T13:41:20.809Z,8.00
2019-01-05T13:48:57.116Z,8.00
2019-01-05T13:52:32.237Z,8.00
2019-01-05T13:56:01.857Z,7.90
2019-01-05T13:58:50.182Z,8.00
2019-01-05T14:01:35.640Z,7.90
2019-01-05T14:04:40.037Z,7.80
2019-01-05T14:07:28.327Z,7.80
2019-01-05T14:10:22.841Z,7.90
2019-01-05T14:13:09.819Z,7.80
2019-01-05T14:15:59.728Z,7.80
2019-01-05T14:18:47.024Z,7.80
2019-01-05T14:21:29.573Z,7.90
2019-01-05T14:24:19.653Z,7.90
2019-01-05T14:27:11.096Z,8.00
2019-01-05T14:29:49.912Z,7.90
2019-01-05T14:32:52.264Z,7.80
2019-01-05T14:35:36.104Z,7.80
2019-01-05T14:38:39.675Z,7.80
2019-01-05T14:41:25.309Z,7.80
2019-01-05T14:44:25.601Z,7.80
2019-01-05T14:47:12.708Z,7.90
2019-01-05T14:49:59.572Z,7.90
2019-01-05T14:52:58.659Z,7.90
2019-01-05T14:55:44.564Z,7.80
2019-01-05T14:58:31.426Z,7.80
2019-01-05T15:01:18.692Z,7.80
2019-01-05T15:04:05.917Z,7.90
2019-01-05T15:06:47.492Z,7.90
2019-01-05T15:09:43.202Z,8.00
2019-01-05T15:12:27.577Z,7.80
2019-01-05T15:15:22.189Z,7.90
2019-01-05T15:18:09.494Z,7.80
2019-01-05T15:20:53.448Z,7.90
2019-01-05T15:23:30.288Z,7.90
2019-01-05T15:26:30.769Z,7.80
2019-01-05T15:29:14.463Z,7.90
2019-01-05T15:32:16.572Z,7.80
2019-01-05T15:35:21.283Z,7.70
2019-01-05T15:38:12.474Z,7.80
2019-01-05T15:40:59.447Z,7.80
2019-01-05T15:43:57.793Z,7.70
2019-01-05T15:46:46.061Z,7.50
2019-01-05T15:49:33.267Z,7.50
2019-01-05T15:52:21.322Z,7.60
2019-01-05T15:55:18.537Z,7.50
2019-01-05T15:58:07.312Z,7.40
2019-01-05T16:00:54.567Z,7.50
2019-01-05T16:03:56.596Z,7.30
2019-01-05T16:06:43.493Z,7.30
2019-01-05T16:09:30.693Z,7.40
2019-01-05T16:12:17.767Z,7.30
2019-01-05T16:15:04.922Z,7.20
2019-01-05T16:17:52.068Z,7.20
2019-01-05T16:20:40.029Z,7.20
2019-01-05T16:23:27.472Z,7.10
2019-01-05T16:26:12.872Z,7.20
2019-01-05T16:28:49.603Z,7.20
2019-01-05T16:31:37.365Z,7.20
2019-01-05T16:34:24.865Z,7.20
2019-01-05T16:37:25.477Z,7.20
2019-01-05T16:40:16.810Z,7.30
2019-01-05T16:42:55.861Z,7.30
2019-01-05T16:45:39.712Z,7.20
2019-01-05T16:48:44.165Z,7.10
2019-01-05T16:51:31.043Z,7.00
2019-01-05T16:54:18.157Z,7.00
2019-01-05T16:56:58.748Z,7.00
2019-01-05T16:59:52.919Z,7.10
2019-01-05T17:02:40.229Z,7.10
2019-01-05T17:05:37.794Z,7.00
2019-01-05T17:08:24.653Z,7.10
2019-01-05T17:11:21.561Z,7.10
2019-01-05T17:14:25.051Z,7.10
2019-01-05T17:17:25.100Z,7.10
2019-01-05T17:20:12.110Z,7.10
2019-01-05T17:23:10.686Z,7.20
2019-01-05T17:25:58.308Z,7.20
2019-01-05T17:28:53.752Z,7.30
2019-01-05T17:31:35.787Z,7.20
2019-01-05T17:34:23.269Z,7.30
2019-01-05T17:37:21.069Z,7.20
2019-01-05T17:40:10.644Z,7.10
2019-01-05T17:42:58.938Z,7.10
2019-01-05T17:45:40.409Z,7.10
2019-01-05T17:48:39.764Z,7.20
2019-01-05T17:51:37.846Z,7.20
2019-01-05T17:54:25.032Z,7.10
2019-01-05T17:57:12.376Z,7.10
2019-01-05T17:59:59.597Z,7.00
2019-01-05T18:02:50.696Z,6.90
2019-01-05T18:05:35.588Z,7.10
2019-01-05T18:08:22.573Z,7.10
2019-01-05T18:11:03.894Z,7.00
2019-01-05T18:13:43.623Z,7.00
2019-01-05T18:16:31.917Z,6.80
2019-01-05T18:19:38.330Z,6.80
2019-01-05T18:22:33.877Z,6.90
2019-01-05T18:25:40.599Z,6.90
2019-01-05T18:28:26.739Z,6.90
2019-01-05T18:31:13.548Z,6.80
2019-01-05T18:34:00.841Z,6.80
2019-01-05T18:36:48.398Z,6.70
2019-01-05T18:39:35.303Z,6.50
2019-01-05T18:42:32.670Z,6.70
2019-01-05T18:45:19.600Z,6.60
2019-01-05T18:48:06.815Z,6.60
2019-01-05T18:50:59.700Z,6.60
2019-01-05T18:53:46.660Z,6.50
2019-01-05T18:56:33.555Z,6.50
2019-01-05T18:59:15.286Z,6.40
2019-01-05T19:02:07.713Z,6.30
2019-01-05T19:04:55.112Z,6.30
2019-01-05T19:07:43.472Z,6.30
2019-01-05T19:10:40.913Z,6.30
2019-01-05T19:13:28.015Z,6.20
2019-01-05T19:16:15.184Z,6.30
2019-01-05T19:18:59.364Z,6.20
2019-01-05T19:22:05.967Z,6.20
2019-01-05T19:24:58.691Z,6.20
2019-01-05T19:27:40.701Z,6.20
2019-01-05T19:30:46.029Z,6.20
2019-01-05T19:33:26.693Z,6.10
2019-01-05T19:36:26.952Z,6.10
2019-01-05T19:39:13.901Z,6.10
2019-01-05T19:42:11.330Z,6.10
2019-01-05T19:45:05.380Z,6.10
2019-01-05T19:47:52.627Z,6.10
2019-01-05T19:50:31.744Z,6.10
2019-01-05T19:53:38.121Z,6.10
2019-01-05T19:56:41.566Z,6.10
2019-01-05T19:59:28.282Z,6.10
2019-01-05T20:02:26.512Z,6.20
2019-01-05T20:05:13.673Z,6.10
2019-01-05T20:08:00.213Z,6.10
2019-01-05T20:10:47.429Z,6.10
2019-01-05T20:13:35.604Z,6.10
2019-01-05T20:16:18.093Z,6.00
2019-01-05T20:19:10.536Z,6.00
2019-01-05T20:22:02.123Z,6.00
2019-01-05T20:24:53.238Z,5.90
2019-01-05T20:27:50.787Z,6.00
2019-01-05T20:30:37.996Z,5.90
2019-01-05T20:33:26.428Z,6.00
2019-01-05T20:36:13.749Z,6.00
2019-01-05T20:39:01.010Z,6.00
2019-01-05T20:41:58.944Z,6.00
2019-01-05T20:44:59.389Z,5.90
2019-01-05T20:47:50.720Z,6.00
2019-01-05T20:50:46.220Z,6.00
2019-01-05T20:53:53.685Z,6.00
2019-01-05T20:56:41.326Z,5.80
2019-01-05T20:59:48.138Z,5.70
2019-01-05T21:02:34.866Z,5.70
2019-01-05T21:05:41.329Z,5.50
2019-01-05T21:08:33.319Z,5.60
2019-01-05T21:11:20.472Z,5.60
2019-01-05T21:14:07.684Z,5.60
2019-01-05T21:16:55.891Z,5.50
2019-01-05T21:19:42.859Z,5.50
2019-01-05T21:22:26.996Z,5.50
2019-01-05T21:25:13.853Z,5.40
2019-01-05T21:28:33.104Z,5.30
2019-01-05T21:31:07.250Z,5.20
2019-01-05T21:33:54.535Z,5.20
2019-01-05T21:36:42.004Z,5.10
2019-01-05T21:39:29.024Z,5.00
2019-01-05T21:42:15.816Z,4.90
2019-01-05T21:45:05.429Z,4.80
2019-01-05T21:54:11.768Z,4.80
2019-01-05T21:56:58.568Z,4.70
2019-01-05T21:59:52.359Z,4.60
2019-01-05T22:02:43.305Z,4.80
2019-01-05T22:05:40.539Z,4.70
2019-01-05T22:08:28.387Z,4.70
2019-01-05T22:11:07.580Z,4.70
2019-01-05T22:13:54.067Z,4.70
2019-01-05T22:16:52.893Z,4.70
2019-01-05T22:19:43.151Z,4.60
2019-01-05T22:22:46.620Z,4.70
2019-01-05T22:25:37.850Z,4.60
2019-01-05T22:28:27.743Z,4.60
2019-01-05T22:31:34.170Z,4.50
2019-01-05T22:34:20.628Z,4.60
2019-01-05T22:37:14.874Z,4.60
2019-01-05T22:40:12.560Z,4.60
2019-01-05T22:43:09.908Z,4.60
2019-01-05T22:45:59.540Z,4.60
2019-01-05T22:48:47.781Z,4.60
2019-01-05T22:51:40.968Z,4.60
2019-01-05T22:54:28.188Z,4.60
2019-01-05T22:57:15.093Z,4.60
2019-01-05T22:59:59.028Z,4.60
2019-01-05T23:02:53.730Z,4.60
2019-01-05T23:05:33.464Z,4.70
2019-01-05T23:08:20.344Z,4.50
2019-01-05T23:11:11.618Z,4.40
2019-01-05T23:14:01.324Z,4.40
2019-01-05T23:16:44.836Z,4.30
2019-01-05T23:19:34.476Z,4.50
2019-01-05T23:22:33.307Z,4.50
2019-01-05T23:25:22.777Z,4.40
2019-01-05T23:28:13.917Z,4.30
2019-01-05T23:31:15.928Z,4.30
2019-01-05T23:34:02.699Z,4.30
2019-01-05T23:36:49.694Z,4.30
2019-01-05T23:39:56.362Z,4.30
2019-01-05T23:42:53.639Z,4.30
2019-01-05T23:45:42.260Z,4.30
2019-01-05T23:48:33.160Z,4.20
2019-01-05T23:51:23.561Z,4.30
2019-01-05T23:54:20.775Z,4.10
2019-01-05T23:57:21.232Z,3.90
